Time;durP1;ratioP1;P1;durP2;ratioP2;P2;SDS_P1;SDS_P2;PMS_P1;PMS_P2;Temp;Humidity;BMP_temperature;BMP_pressure;BME280_temperature;BME280_humidity;BME280_pressure;Samples;Min_cycle;Max_cycle;Signal;HPM_P1;HPM_P2
2024/02/11 00:00:59;;;;;;;42.90;26.40;;;;;;;5.36;100.00;98232.96;102899;1273;107696;-67
2024/02/11 00:03:59;;;;;;;39.50;25.70;;;;;;;5.36;100.00;98239.17;102330;1273;97700;-68
2024/02/11 00:07:00;;;;;;;40.10;25.40;;;;;;;5.34;100.00;98240.11;102342;1270;111011;-68
2024/02/11 00:10:02;;;;;;;40.20;25.50;;;;;;;5.32;100.00;98244.33;102300;1270;107649;-68
2024/02/11 00:13:03;;;;;;;43.10;26.80;;;;;;;5.32;100.00;98243.48;102353;1270;97845;-68
2024/02/11 00:16:09;;;;;;;40.10;26.10;;;;;;;5.33;100.00;98240.67;102355;1270;107786;-67
2024/02/11 00:19:11;;;;;;;39.80;26.40;;;;;;;5.32;100.00;98238.33;102308;1270;97864;-67
2024/02/11 00:22:13;;;;;;;40.50;26.70;;;;;;;5.29;100.00;98243.60;102343;1273;111019;-69
2024/02/11 00:25:16;;;;;;;44.30;25.90;;;;;;;5.25;100.00;98246.88;102161;1270;108192;-69
2024/02/11 00:28:19;;;;;;;39.90;25.10;;;;;;;5.21;100.00;98252.40;102356;1270;99608;-69
2024/02/11 00:31:19;;;;;;;41.40;25.90;;;;;;;5.20;100.00;98251.06;102332;1270;109027;-69
2024/02/11 00:34:20;;;;;;;37.90;23.90;;;;;;;5.20;100.00;98254.35;102291;1276;99188;-69
2024/02/11 00:37:21;;;;;;;46.20;27.20;;;;;;;5.15;100.00;98255.23;102366;1270;112309;-68
2024/02/11 00:40:22;;;;;;;47.50;27.10;;;;;;;5.09;100.00;98256.73;102227;1273;109124;-69
2024/02/11 00:43:24;;;;;;;50.00;26.90;;;;;;;5.00;100.00;98257.23;102377;1270;98376;-69
2024/02/11 00:46:24;;;;;;;51.50;27.60;;;;;;;4.95;100.00;98257.98;102337;1271;107842;-69
2024/02/11 00:49:25;;;;;;;44.90;26.30;;;;;;;4.91;100.00;98252.83;102284;1271;97825;-68
2024/02/11 00:52:26;;;;;;;46.30;28.00;;;;;;;4.88;100.00;98248.30;102297;1270;112048;-69
2024/02/11 00:55:27;;;;;;;49.50;29.00;;;;;;;4.84;100.00;98244.80;102222;1273;108451;-68
2024/02/11 00:58:30;;;;;;;58.70;28.70;;;;;;;4.81;100.00;98244.74;102213;1270;99534;-68
2024/02/11 01:01:30;;;;;;;42.80;26.40;;;;;;;4.79;100.00;98251.71;102288;1273;108007;-68
2024/02/11 01:04:32;;;;;;;53.80;27.90;;;;;;;4.78;100.00;98250.90;102309;1270;97919;-68
2024/02/11 01:07:34;;;;;;;50.20;29.20;;;;;;;4.77;100.00;98249.58;101543;1269;1003079;-68
2024/02/11 01:10:34;;;;;;;55.70;29.80;;;;;;;4.75;100.00;98239.84;102247;1273;107756;-69
2024/02/11 01:13:36;;;;;;;55.40;29.20;;;;;;;4.74;100.00;98242.48;102297;1270;98469;-70
2024/02/11 01:16:36;;;;;;;50.00;29.50;;;;;;;4.74;100.00;98241.59;102554;1273;107433;-69
2024/02/11 01:19:39;;;;;;;63.80;29.70;;;;;;;4.73;100.00;98241.81;100932;1270;1003317;-69
2024/02/11 01:22:39;;;;;;;60.70;31.30;;;;;;;4.71;100.00;98246.20;102337;1270;111006;-69
2024/02/11 01:25:40;;;;;;;59.90;30.30;;;;;;;4.68;100.00;98235.51;102339;1270;107474;-69
2024/02/11 01:28:42;;;;;;;86.70;29.90;;;;;;;4.69;100.00;98227.22;102364;1270;98412;-68
2024/02/11 01:31:42;;;;;;;88.30;31.10;;;;;;;4.69;100.00;98230.83;102281;1270;108038;-68
2024/02/11 01:34:44;;;;;;;67.30;30.40;;;;;;;4.67;100.00;98229.50;102406;1270;97925;-68
2024/02/11 01:37:44;;;;;;;88.60;30.00;;;;;;;4.68;100.00;98227.07;102373;1270;111274;-69
2024/02/11 01:40:45;;;;;;;58.40;29.40;;;;;;;4.67;100.00;98222.27;102347;1270;108080;-68
2024/02/11 01:43:46;;;;;;;72.10;30.30;;;;;;;4.67;100.00;98226.91;102331;1270;97819;-68
2024/02/11 01:46:47;;;;;;;73.80;31.10;;;;;;;4.65;100.00;98231.13;102368;1270;108481;-68
2024/02/11 01:49:48;;;;;;;71.90;30.20;;;;;;;4.63;100.00;98227.23;102303;1271;97862;-68
2024/02/11 01:52:52;;;;;;;74.80;31.20;;;;;;;4.62;100.00;98226.77;102324;1270;111498;-67
2024/02/11 01:55:53;;;;;;;72.30;31.40;;;;;;;4.61;100.00;98221.14;102185;1269;107388;-68
2024/02/11 01:58:54;;;;;;;94.70;30.90;;;;;;;4.60;100.00;98218.09;102310;1272;97798;-68
2024/02/11 02:01:56;;;;;;;68.40;29.90;;;;;;;4.58;100.00;98212.13;102450;1273;108038;-67
2024/02/11 02:04:56;;;;;;;68.90;30.80;;;;;;;4.56;100.00;98205.02;102302;1273;97815;-68
2024/02/11 02:07:59;;;;;;;76.20;31.10;;;;;;;4.57;100.00;98207.38;101665;1270;1003454;-67
2024/02/11 02:10:59;;;;;;;50.70;29.20;;;;;;;4.56;100.00;98211.04;102336;1273;107880;-68
2024/02/11 02:14:00;;;;;;;52.80;28.90;;;;;;;4.56;100.00;98215.85;102346;1270;97866;-67
2024/02/11 02:17:02;;;;;;;64.50;28.90;;;;;;;4.54;100.00;98217.80;102292;1270;109184;-68
2024/02/11 02:20:03;;;;;;;72.40;30.30;;;;;;;4.53;100.00;98213.91;94707;1270;10227438;-67
2024/02/11 02:23:03;;;;;;;77.80;30.10;;;;;;;4.53;100.00;98213.19;102299;1270;107340;-68
2024/02/11 02:26:12;;;;;;;69.20;29.70;;;;;;;4.50;100.00;98206.25;102298;1273;97698;-68
2024/02/11 02:29:13;;;;;;;56.30;29.10;;;;;;;4.48;100.00;98210.46;102216;1270;138754;-68
2024/02/11 02:32:15;;;;;;;56.90;30.50;;;;;;;4.46;100.00;98217.10;102218;1270;106783;-67
2024/02/11 02:35:21;;;;;;;100.90;28.70;;;;;;;4.46;100.00;98220.17;102289;1270;139437;-68
2024/02/11 02:38:21;;;;;;;75.10;29.00;;;;;;;4.43;100.00;98223.91;102329;1272;107547;-68
2024/02/11 02:41:22;;;;;;;69.50;28.90;;;;;;;4.42;100.00;98225.34;102301;1270;138981;-68
2024/02/11 02:44:23;;;;;;;77.30;29.60;;;;;;;4.43;100.00;98220.83;103625;1269;110198;-69
2024/02/11 02:47:25;;;;;;;90.30;29.20;;;;;;;4.43;100.00;98220.14;102129;1269;138971;-69
2024/02/11 02:50:25;;;;;;;73.10;29.80;;;;;;;4.42;100.00;98216.76;102391;1270;97828;-68
2024/02/11 02:53:26;;;;;;;104.90;28.10;;;;;;;4.42;100.00;98207.45;102251;1270;138806;-69
2024/02/11 02:56:28;;;;;;;93.30;28.20;;;;;;;4.41;100.00;98202.67;102314;1270;97841;-68
2024/02/11 02:59:28;;;;;;;84.10;29.10;;;;;;;4.38;100.00;98201.23;102711;1271;140979;-68
2024/02/11 03:02:29;;;;;;;51.10;28.90;;;;;;;4.37;100.00;98196.80;101914;1266;114543;-66
2024/02/11 03:05:34;;;;;;;47.60;29.30;;;;;;;4.41;100.00;98200.45;102265;1267;139163;-67
2024/02/11 03:08:35;;;;;;;49.80;29.40;;;;;;;4.44;100.00;98200.81;102407;1267;107499;-67
2024/02/11 03:11:37;;;;;;;58.20;31.40;;;;;;;4.47;100.00;98199.16;102281;1267;139129;-67
2024/02/11 03:14:39;;;;;;;61.70;30.80;;;;;;;4.48;100.00;98203.23;102374;1267;111393;-67
2024/02/11 03:17:41;;;;;;;51.40;29.40;;;;;;;4.50;100.00;98202.83;102159;1272;140598;-67
2024/02/11 03:20:42;;;;;;;45.60;28.00;;;;;;;4.52;100.00;98204.98;102271;1269;99542;-68
2024/02/11 03:23:43;;;;;;;61.50;28.60;;;;;;;4.52;100.00;98199.82;102162;1267;139664;-68
2024/02/11 03:26:44;;;;;;;45.00;27.80;;;;;;;4.53;100.00;98198.92;102336;1272;97810;-69
2024/02/11 03:29:45;;;;;;;48.90;28.40;;;;;;;4.52;100.00;98202.40;102291;1267;139865;-68
2024/02/11 03:32:47;;;;;;;48.90;28.10;;;;;;;4.51;100.00;98204.16;102388;1267;108313;-68
2024/02/11 03:35:47;;;;;;;47.20;28.80;;;;;;;4.50;100.00;98210.90;102184;1272;138979;-69
2024/02/11 03:38:48;;;;;;;44.60;28.70;;;;;;;4.50;100.00;98218.69;102322;1270;108316;-69
2024/02/11 03:41:49;;;;;;;45.80;27.30;;;;;;;4.50;100.00;98222.44;102220;1270;140040;-68
2024/02/11 03:44:50;;;;;;;43.00;27.10;;;;;;;4.52;100.00;98217.20;102342;1270;112137;-69
2024/02/11 03:47:51;;;;;;;46.80;28.10;;;;;;;4.53;100.00;98218.35;102186;1270;139421;-69
2024/02/11 03:50:52;;;;;;;52.60;27.70;;;;;;;4.53;100.00;98212.84;102343;1270;97827;-68
2024/02/11 03:53:54;;;;;;;47.20;26.60;;;;;;;4.51;100.00;98217.23;102101;1273;139107;-68
2024/02/11 03:56:54;;;;;;;45.50;27.20;;;;;;;4.49;100.00;98214.38;101573;1270;1003210;-68
2024/02/11 03:59:56;;;;;;;47.00;26.80;;;;;;;4.48;100.00;98211.17;102193;1273;139495;-69
2024/02/11 04:02:57;;;;;;;41.00;27.20;;;;;;;4.44;100.00;98213.20;102329;1272;107686;-68
2024/02/11 04:05:58;;;;;;;42.90;26.70;;;;;;;4.44;100.00;98218.38;102278;1270;138767;-68
2024/02/11 04:09:00;;;;;;;43.60;28.20;;;;;;;4.46;100.00;98218.63;102276;1270;108356;-69
2024/02/11 04:12:02;;;;;;;43.60;26.70;;;;;;;4.47;100.00;98214.48;102086;1270;138862;-68
2024/02/11 04:15:03;;;;;;;42.10;27.90;;;;;;;4.48;100.00;98224.06;102253;1270;111668;-68
2024/02/11 04:18:07;;;;;;;39.90;26.60;;;;;;;4.47;100.00;98219.27;102127;1269;140139;-67
2024/02/11 04:21:10;;;;;;;53.60;26.80;;;;;;;4.49;100.00;98217.85;102210;1270;99995;-68
2024/02/11 04:24:05;;;;;;;40.70;27.00;;;;;;;4.49;100.00;98213.18;102064;1270;139075;-68
2024/02/11 04:26:53;;;;;;;45.90;27.60;;;;;;;4.47;100.00;98205.86;102260;1270;97906;-67
2024/02/11 04:29:34;;;;;;;40.30;27.30;;;;;;;4.49;100.00;98203.90;102154;1270;138820;-68
2024/02/11 04:32:22;;;;;;;40.60;26.10;;;;;;;4.47;100.00;98200.84;102238;1271;108287;-68
2024/02/11 04:35:05;;;;;;;38.70;27.00;;;;;;;4.47;100.00;98200.52;102322;1270;98465;-68
2024/02/11 04:37:53;;;;;;;38.00;26.80;;;;;;;4.47;100.00;98197.59;102625;1270;108193;-67
2024/02/11 04:40:55;;;;;;;40.40;26.90;;;;;;;4.48;100.00;98197.55;102747;1270;97861;-68
2024/02/11 04:43:57;;;;;;;38.20;26.40;;;;;;;4.51;100.00;98194.88;102415;1271;110890;-69
2024/02/11 04:47:00;;;;;;;41.80;26.90;;;;;;;4.53;100.00;98193.21;102352;1270;108360;-69
2024/02/11 04:50:00;;;;;;;37.80;25.00;;;;;;;4.56;100.00;98191.41;102432;1270;98366;-69
2024/02/11 04:53:03;;;;;;;38.10;25.80;;;;;;;4.59;100.00;98196.79;102311;1273;108038;-68
2024/02/11 04:56:05;;;;;;;37.00;25.60;;;;;;;4.62;100.00;98193.55;102633;1272;97784;-69
2024/02/11 04:59:07;;;;;;;41.00;26.10;;;;;;;4.65;100.00;98189.47;102237;1270;110272;-70
2024/02/11 05:02:08;;;;;;;37.80;25.80;;;;;;;4.66;100.00;98186.33;102142;1270;108701;-70
2024/02/11 05:05:11;;;;;;;38.80;26.10;;;;;;;4.68;100.00;98181.81;102291;1270;97852;-70
2024/02/11 05:08:16;;;;;;;33.20;24.80;;;;;;;4.66;100.00;98170.66;102184;1270;110390;-70
2024/02/11 05:11:19;;;;;;;34.80;24.10;;;;;;;4.70;100.00;98176.52;102208;1268;97866;-70
2024/02/11 05:14:20;;;;;;;36.50;25.20;;;;;;;4.74;100.00;98179.99;102159;1270;110883;-71
2024/02/11 05:17:15;;;;;;;32.50;24.70;;;;;;;4.77;100.00;98172.29;102206;1270;106801;-70
2024/02/11 05:20:17;;;;;;;38.20;24.60;;;;;;;4.79;100.00;98175.45;102180;1272;97847;-70
2024/02/11 05:23:20;;;;;;;35.20;23.90;;;;;;;4.79;100.00;98171.15;102625;1270;105793;-68
2024/02/11 05:26:22;;;;;;;33.60;23.70;;;;;;;4.81;100.00;98175.03;102393;1270;97819;-68
2024/02/11 05:29:23;;;;;;;33.30;23.60;;;;;;;4.81;100.00;98173.81;102388;1273;111347;-68
2024/02/11 05:32:25;;;;;;;34.40;24.50;;;;;;;4.82;100.00;98178.27;102350;1273;109023;-68
2024/02/11 05:35:27;;;;;;;34.60;23.80;;;;;;;4.83;100.00;98181.14;102294;1270;97815;-67
2024/02/11 05:38:29;;;;;;;35.40;24.30;;;;;;;4.81;100.00;98182.75;102397;1270;107449;-68
2024/02/11 05:41:30;;;;;;;33.40;24.30;;;;;;;4.80;100.00;98181.96;102372;1271;97821;-68
2024/02/11 05:44:32;;;;;;;30.90;22.70;;;;;;;4.79;100.00;98185.27;102422;1271;110799;-68
2024/02/11 05:47:33;;;;;;;33.30;24.80;;;;;;;4.80;100.00;98184.52;102367;1273;106668;-68
2024/02/11 05:50:34;;;;;;;30.40;23.50;;;;;;;4.81;100.00;98188.13;102423;1270;98208;-69
2024/02/11 05:53:35;;;;;;;36.10;24.30;;;;;;;4.81;100.00;98191.21;102524;1273;106930;-68
2024/02/11 05:56:36;;;;;;;31.90;23.20;;;;;;;4.83;100.00;98190.24;102369;1269;97904;-68
2024/02/11 05:59:37;;;;;;;29.40;23.10;;;;;;;4.84;100.00;98188.86;102873;1271;112260;-68
2024/02/11 06:02:38;;;;;;;32.30;22.50;;;;;;;4.83;100.00;98195.39;102331;1271;107373;-67
2024/02/11 06:05:40;;;;;;;32.00;22.50;;;;;;;4.82;100.00;98191.84;102406;1272;98353;-67
2024/02/11 06:08:41;;;;;;;31.00;23.30;;;;;;;4.81;100.00;98190.15;102381;1272;107930;-68
2024/02/11 06:11:42;;;;;;;31.20;23.50;;;;;;;4.83;100.00;98191.48;102332;1272;97834;-67
2024/02/11 06:14:44;;;;;;;31.80;22.30;;;;;;;4.82;100.00;98190.13;102417;1271;110936;-67
2024/02/11 06:17:38;;;;;;;30.70;22.60;;;;;;;4.82;100.00;98192.86;102307;1271;108494;-68
2024/02/11 06:20:40;;;;;;;30.90;23.20;;;;;;;4.82;100.00;98192.38;102366;1270;98607;-68
2024/02/11 06:23:41;;;;;;;31.30;23.20;;;;;;;4.84;100.00;98193.67;102317;1271;108133;-68
2024/02/11 06:26:42;;;;;;;30.90;23.50;;;;;;;4.88;100.00;98192.49;102382;1270;97807;-68
2024/02/11 06:29:43;;;;;;;29.50;22.40;;;;;;;4.91;100.00;98190.80;102437;1270;110464;-68
2024/02/11 06:32:44;;;;;;;30.10;22.50;;;;;;;4.95;100.00;98185.65;102415;1270;107302;-68
2024/02/11 06:35:46;;;;;;;31.10;23.20;;;;;;;4.95;100.00;98189.23;102406;1270;97829;-67
2024/02/11 06:38:47;;;;;;;32.20;22.70;;;;;;;4.99;100.00;98189.27;102279;1270;108692;-67
2024/02/11 06:41:48;;;;;;;29.40;22.50;;;;;;;4.99;100.00;98188.90;102348;1273;97703;-67
2024/02/11 06:44:49;;;;;;;30.60;22.30;;;;;;;5.00;100.00;98192.82;102286;1270;111481;-68
2024/02/11 06:47:50;;;;;;;28.70;22.90;;;;;;;4.98;100.00;98187.91;102299;1271;110090;-68
2024/02/11 06:50:51;;;;;;;30.30;22.70;;;;;;;4.99;100.00;98188.55;102329;1273;97778;-68
2024/02/11 06:53:52;;;;;;;27.30;21.30;;;;;;;5.01;100.00;98188.15;102369;1271;107844;-71
2024/02/11 06:56:53;;;;;;;29.90;22.10;;;;;;;5.02;100.00;98191.20;102342;1271;97858;-66
2024/02/11 06:59:55;;;;;;;31.40;23.30;;;;;;;5.03;100.00;98185.47;102281;1270;111185;-67
2024/02/11 07:03:01;;;;;;;32.00;23.30;;;;;;;5.06;100.00;98187.40;102199;1271;107979;-67
2024/02/11 07:06:02;;;;;;;30.20;23.90;;;;;;;5.09;100.00;98182.64;102300;1273;97818;-72
2024/02/11 07:09:03;;;;;;;31.60;23.10;;;;;;;5.12;100.00;98185.08;102174;1273;107724;-74
2024/02/11 07:12:05;;;;;;;30.40;22.60;;;;;;;5.14;100.00;98185.32;102164;1270;98609;-73
2024/02/11 07:15:07;;;;;;;31.60;22.80;;;;;;;5.15;100.00;98184.40;102088;1270;110326;-70
2024/02/11 07:18:08;;;;;;;31.80;22.80;;;;;;;5.22;100.00;98185.02;102082;1271;107901;-68
2024/02/11 07:21:11;;;;;;;28.70;22.60;;;;;;;5.24;100.00;98178.73;102058;1270;97799;-71
2024/02/11 07:24:12;;;;;;;31.60;22.50;;;;;;;5.25;100.00;98174.35;101453;1276;1002615;-73
2024/02/11 07:27:14;;;;;;;33.00;22.40;;;;;;;5.47;100.00;98176.80;102142;1270;97837;-68
2024/02/11 07:30:17;;;;;;;27.70;21.50;;;;;;;5.52;100.00;98170.75;102722;1267;111553;-79
2024/02/11 07:33:18;;;;;;;28.10;21.40;;;;;;;5.57;100.00;98165.54;102251;1272;108446;-78
2024/02/11 07:36:19;;;;;;;26.90;20.60;;;;;;;5.59;100.00;98163.71;102297;1273;98341;-76
2024/02/11 07:39:20;;;;;;;27.70;20.80;;;;;;;5.60;100.00;98164.88;102197;1269;107797;-79
2024/02/11 07:42:22;;;;;;;26.70;19.50;;;;;;;5.60;100.00;98164.89;102113;1273;97744;-74
2024/02/11 07:45:23;;;;;;;28.40;21.50;;;;;;;5.59;100.00;98161.81;102118;1270;111607;-72
2024/02/11 07:48:25;;;;;;;29.00;19.80;;;;;;;5.59;100.00;98161.83;102045;1270;105695;-75
2024/02/11 07:51:27;;;;;;;27.50;20.60;;;;;;;5.60;100.00;98157.82;102119;1273;98356;-74
2024/02/11 07:54:28;;;;;;;26.20;20.50;;;;;;;5.62;100.00;98159.98;102202;1271;106465;-74
2024/02/11 07:57:29;;;;;;;27.90;21.20;;;;;;;5.63;100.00;98163.18;102080;1270;97838;-73
2024/02/11 08:00:31;;;;;;;27.20;20.80;;;;;;;5.65;100.00;98162.06;102157;1267;111341;-73
2024/02/11 08:03:32;;;;;;;28.70;21.30;;;;;;;5.65;100.00;98163.77;102185;1270;108116;-75
2024/02/11 08:06:33;;;;;;;26.50;21.70;;;;;;;5.65;100.00;98164.28;102258;1272;97928;-73
2024/02/11 08:09:34;;;;;;;27.20;20.00;;;;;;;5.68;100.00;98168.83;102232;1273;108012;-72
2024/02/11 08:12:35;;;;;;;27.90;21.10;;;;;;;5.68;100.00;98165.53;102185;1268;97912;-78
2024/02/11 08:15:36;;;;;;;29.70;21.10;;;;;;;5.70;100.00;98164.38;102182;1271;112880;-79
2024/02/11 08:18:37;;;;;;;26.10;20.90;;;;;;;5.71;100.00;98165.02;102018;1268;107883;-77
2024/02/11 08:21:39;;;;;;;29.30;21.90;;;;;;;5.70;100.00;98161.45;102179;1273;97843;-75
2024/02/11 08:24:40;;;;;;;31.10;22.60;;;;;;;5.68;100.00;98159.16;102125;1269;108583;-76
2024/02/11 08:27:41;;;;;;;30.90;21.40;;;;;;;5.71;100.00;98159.36;102180;1269;98012;-79
2024/02/11 08:30:42;;;;;;;30.60;23.30;;;;;;;5.73;100.00;98161.30;102108;1273;110902;-80
2024/02/11 08:33:51;;;;;;;30.70;22.50;;;;;;;5.75;100.00;98163.85;102557;1272;106145;-76
2024/02/11 08:36:52;;;;;;;34.90;22.60;;;;;;;5.77;100.00;98164.27;102292;1272;97904;-79
2024/02/11 08:39:53;;;;;;;32.00;22.40;;;;;;;5.78;100.00;98159.90;102062;1270;107183;-79
2024/02/11 08:42:54;;;;;;;30.80;23.20;;;;;;;5.83;100.00;98161.77;102166;1273;97844;-74
2024/02/11 08:45:55;;;;;;;31.10;22.40;;;;;;;5.85;100.00;98158.04;102226;1270;111255;-77
2024/02/11 08:48:56;;;;;;;29.90;22.70;;;;;;;5.90;100.00;98162.64;102219;1273;106774;-80
2024/02/11 08:51:58;;;;;;;26.50;20.90;;;;;;;5.95;100.00;98162.77;102301;1270;97884;-82
2024/02/11 08:55:00;;;;;;;29.30;21.40;;;;;;;6.02;100.00;98163.63;102187;1272;107052;-80
2024/02/11 08:58:01;;;;;;;30.30;21.80;;;;;;;6.12;100.00;98158.02;102275;1273;97905;-84
2024/02/11 09:01:02;;;;;;;28.80;22.20;;;;;;;6.19;100.00;98157.14;102145;1273;110708;-81
2024/02/11 09:04:10;;;;;;;29.50;21.20;;;;;;;6.26;100.00;98156.13;102100;1273;107983;-75
2024/02/11 09:07:14;;;;;;;30.00;21.50;;;;;;;6.30;100.00;98158.19;102276;1273;98449;-75
2024/02/11 09:10:16;;;;;;;29.70;21.40;;;;;;;6.30;100.00;98154.02;102164;1270;106946;-77
2024/02/11 09:13:17;;;;;;;28.90;22.00;;;;;;;6.32;100.00;98154.13;102129;1272;98084;-79
2024/02/11 09:16:18;;;;;;;31.10;20.70;;;;;;;6.37;100.00;98158.17;102132;1273;111475;-77
2024/02/11 09:19:19;;;;;;;28.00;20.30;;;;;;;6.43;100.00;98150.45;102054;1272;106450;-77
2024/02/11 09:22:20;;;;;;;30.10;19.50;;;;;;;6.50;100.00;98151.33;102076;1273;97818;-76
2024/02/11 09:25:21;;;;;;;30.60;20.90;;;;;;;6.57;100.00;98154.10;102052;1270;108032;-77
2024/02/11 09:28:22;;;;;;;34.20;20.40;;;;;;;6.62;100.00;98154.86;102151;1267;97812;-76
2024/02/11 09:31:24;;;;;;;29.80;19.90;;;;;;;6.67;100.00;98147.91;102156;1273;110667;-82
2024/02/11 09:34:25;;;;;;;27.90;20.20;;;;;;;6.72;100.00;98144.39;101897;1273;107465;-75
2024/02/11 09:37:27;;;;;;;29.30;20.30;;;;;;;6.77;100.00;98149.84;101850;1272;97831;-76
2024/02/11 09:40:28;;;;;;;28.00;19.00;;;;;;;6.84;100.00;98138.42;102158;1272;107319;-77
2024/02/11 09:43:30;;;;;;;29.00;19.80;;;;;;;6.89;100.00;98141.45;102236;1269;97928;-77
2024/02/11 09:46:34;;;;;;;29.60;20.20;;;;;;;6.91;100.00;98134.08;102297;1270;110781;-76
2024/02/11 09:49:38;;;;;;;27.30;18.40;;;;;;;6.92;100.00;98133.14;102123;1272;108220;-76
2024/02/11 09:52:39;;;;;;;29.10;20.30;;;;;;;6.98;100.00;98133.52;102302;1272;98366;-77
2024/02/11 09:55:40;;;;;;;27.40;19.30;;;;;;;7.05;100.00;98128.19;102301;1273;107893;-78
2024/02/11 09:58:41;;;;;;;25.80;19.10;;;;;;;7.10;100.00;98130.15;102314;1273;97830;-78
2024/02/11 10:01:42;;;;;;;28.20;18.50;;;;;;;7.15;100.00;98125.55;102306;1271;110554;-77
2024/02/11 10:04:45;;;;;;;28.10;19.80;;;;;;;7.23;100.00;98123.42;102272;1274;107664;-78
2024/02/11 10:07:52;;;;;;;28.10;18.10;;;;;;;7.29;100.00;98122.79;102304;1273;97899;-76
2024/02/11 10:10:53;;;;;;;28.50;19.80;;;;;;;7.36;100.00;98119.81;102372;1273;106106;-68
2024/02/11 10:13:59;;;;;;;27.90;18.80;;;;;;;7.47;100.00;98120.74;102273;1270;97739;-74
2024/02/11 10:17:02;;;;;;;26.50;18.30;;;;;;;7.50;100.00;98119.88;102291;1272;110890;-76
2024/02/11 10:20:03;;;;;;;27.40;18.90;;;;;;;7.52;100.00;98111.30;102242;1270;108022;-79
2024/02/11 10:23:05;;;;;;;26.90;18.40;;;;;;;7.53;100.00;98108.84;102188;1270;97835;-76
2024/02/11 10:26:07;;;;;;;26.90;18.60;;;;;;;7.55;100.00;98109.13;102165;1270;108490;-75
2024/02/11 10:29:09;;;;;;;24.60;17.40;;;;;;;7.58;100.00;98107.23;102305;1270;97935;-74
2024/02/11 10:32:12;;;;;;;28.20;17.60;;;;;;;7.61;100.00;98107.77;102246;1270;110266;-75
2024/02/11 10:35:17;;;;;;;29.10;18.20;;;;;;;7.64;100.00;98101.02;102333;1270;108120;-72
2024/02/11 10:38:18;;;;;;;25.80;18.00;;;;;;;7.66;100.00;98096.73;102482;1273;97974;-77
2024/02/11 10:41:19;;;;;;;23.40;18.20;;;;;;;7.70;100.00;98090.47;102255;1273;107851;-74
2024/02/11 10:44:20;;;;;;;25.40;17.80;;;;;;;7.72;100.00;98087.58;102159;1273;97865;-72
2024/02/11 10:47:21;;;;;;;28.20;17.70;;;;;;;7.75;100.00;98086.07;102101;1273;110999;-80
2024/02/11 10:50:25;;;;;;;25.00;18.30;;;;;;;7.76;100.00;98084.58;102144;1273;107736;-80
2024/02/11 10:53:30;;;;;;;23.70;17.20;;;;;;;7.80;100.00;98082.33;102072;1270;97935;-76
2024/02/11 10:56:35;;;;;;;28.10;17.20;;;;;;;7.83;100.00;98080.38;101921;1274;107753;-78
2024/02/11 10:59:43;;;;;;;25.60;17.00;;;;;;;7.88;100.00;98080.46;102147;1273;97844;-74
2024/02/11 11:02:45;;;;;;;26.70;17.60;;;;;;;7.90;100.00;98071.18;102209;1270;111901;-73
2024/02/11 11:05:48;;;;;;;27.00;16.90;;;;;;;7.94;100.00;98076.36;102068;1272;107387;-73
2024/02/11 11:08:50;;;;;;;23.90;16.70;;;;;;;7.97;100.00;98064.92;102157;1270;98476;-75
2024/02/11 11:11:51;;;;;;;27.30;16.30;;;;;;;8.01;100.00;98063.66;102046;1273;108068;-73
2024/02/11 11:14:53;;;;;;;23.90;15.80;;;;;;;8.05;100.00;98064.81;102248;1270;97698;-77
2024/02/11 11:17:54;;;;;;;27.80;16.80;;;;;;;8.06;100.00;98064.02;102704;1267;111331;-75
2024/02/11 11:21:01;;;;;;;27.60;17.40;;;;;;;8.10;100.00;98056.73;102280;1273;107805;-75
2024/02/11 11:24:05;;;;;;;24.90;16.40;;;;;;;8.14;100.00;98059.45;102207;1271;97806;-77
2024/02/11 11:27:06;;;;;;;26.10;16.10;;;;;;;8.16;100.00;98058.10;102181;1273;108240;-73
2024/02/11 11:30:10;;;;;;;25.30;17.00;;;;;;;8.18;100.00;98056.94;102157;1269;97875;-74
2024/02/11 11:33:13;;;;;;;23.70;16.00;;;;;;;8.21;100.00;98057.67;102214;1273;110581;-73
2024/02/11 11:36:18;;;;;;;24.20;15.70;;;;;;;8.22;100.00;98057.40;102166;1272;107961;-75
2024/02/11 11:39:19;;;;;;;25.80;16.30;;;;;;;8.26;100.00;98057.38;102263;1273;97818;-76
2024/02/11 11:42:25;;;;;;;24.10;15.30;;;;;;;8.28;100.00;98051.02;102094;1271;107770;-76
2024/02/11 11:45:26;;;;;;;27.70;16.70;;;;;;;8.34;100.00;98052.92;102058;1270;139547;-77
2024/02/11 11:48:27;;;;;;;24.00;14.90;;;;;;;8.41;100.00;98046.64;102175;1270;113837;-78
2024/02/11 11:51:31;;;;;;;21.40;15.60;;;;;;;8.48;100.00;98043.30;102072;1273;140887;-79
2024/02/11 11:54:35;;;;;;;24.20;15.20;;;;;;;8.54;100.00;98038.10;102242;1270;99519;-77
2024/02/11 11:57:39;;;;;;;26.70;15.30;;;;;;;8.59;100.00;98039.52;101972;1275;140396;-76
2024/02/11 12:00:53;;;;;;;25.40;15.60;;;;;;;8.63;100.00;98034.98;102144;1273;97973;-75
2024/02/11 12:03:54;;;;;;;21.60;14.70;;;;;;;8.61;100.00;98032.00;101896;1273;140013;-76
2024/02/11 12:06:56;;;;;;;24.50;14.90;;;;;;;8.61;100.00;98030.96;101931;1271;105877;-77
2024/02/11 12:09:59;;;;;;;21.10;14.10;;;;;;;8.65;100.00;98024.33;101837;1273;139269;-75
2024/02/11 12:13:09;;;;;;;22.60;14.40;;;;;;;8.63;100.00;98031.33;103365;1270;107196;-76
2024/02/11 12:16:15;;;;;;;23.70;14.70;;;;;;;8.62;100.00;98029.88;101812;1273;137651;-75
2024/02/11 12:19:19;;;;;;;20.90;13.40;;;;;;;8.64;100.00;98026.98;102036;1274;110801;-77
2024/02/11 12:22:22;;;;;;;21.10;14.40;;;;;;;8.66;100.00;98011.22;102128;1270;138775;-75
2024/02/11 12:25:33;;;;;;;24.20;14.90;;;;;;;8.74;100.00;98014.92;102114;1268;98425;-74
2024/02/11 12:28:37;;;;;;;22.20;14.80;;;;;;;8.79;100.00;98013.55;102044;1271;139294;-71
2024/02/11 12:31:38;;;;;;;25.80;14.90;;;;;;;8.83;100.00;98004.18;102153;1286;99414;-74
2024/02/11 12:34:39;;;;;;;21.80;14.70;;;;;;;8.87;100.00;98000.25;101980;1276;139599;-73
2024/02/11 12:37:45;;;;;;;20.50;14.90;;;;;;;8.95;100.00;98003.59;101966;1270;107860;-72
2024/02/11 12:40:46;;;;;;;22.90;14.50;;;;;;;9.03;100.00;97993.38;102080;1270;139955;-81
2024/02/11 12:43:49;;;;;;;24.80;15.20;;;;;;;9.12;100.00;97986.06;102216;1270;108342;-75
2024/02/11 12:46:50;;;;;;;21.30;13.30;;;;;;;9.15;100.00;97984.11;102056;1270;138892;-77
2024/02/11 12:49:51;;;;;;;22.60;14.20;;;;;;;9.19;100.00;97985.45;102254;1270;111518;-74
2024/02/11 12:52:52;;;;;;;24.90;14.00;;;;;;;9.24;100.00;97985.69;102102;1273;139764;-85
2024/02/11 12:55:53;;;;;;;24.00;13.70;;;;;;;9.25;100.00;97980.95;102252;1271;99142;-77
2024/02/11 12:58:55;;;;;;;21.50;13.00;;;;;;;9.24;100.00;97983.21;102030;1270;141255;-74
2024/02/11 13:01:57;;;;;;;19.30;13.50;;;;;;;9.23;100.00;97976.52;102172;1270;97921;-76
2024/02/11 13:04:59;;;;;;;22.80;12.10;;;;;;;9.24;100.00;97978.39;102041;1270;138879;-78
2024/02/11 13:08:00;;;;;;;17.50;11.80;;;;;;;9.26;100.00;97971.34;102040;1273;107896;-76
2024/02/11 13:11:01;;;;;;;17.50;10.80;;;;;;;9.31;100.00;97965.80;102857;1269;139061;-73
2024/02/11 13:14:02;;;;;;;18.30;10.70;;;;;;;9.37;100.00;97966.79;103661;1270;108474;-79
2024/02/11 13:17:03;;;;;;;18.80;11.10;;;;;;;9.47;100.00;97966.16;103506;1270;139168;-80
2024/02/11 13:20:08;;;;;;;17.70;10.30;;;;;;;9.58;100.00;97968.58;103693;1270;111303;-74
2024/02/11 13:23:09;;;;;;;18.50;10.30;;;;;;;9.65;100.00;97955.95;103244;1270;139016;-86
2024/02/11 13:26:12;;;;;;;17.40;10.20;;;;;;;9.72;100.00;97969.09;102185;1270;97859;-83
2024/02/11 13:29:13;;;;;;;22.50;10.50;;;;;;;9.76;100.00;97963.95;102005;1272;139798;-83
2024/02/11 13:32:17;;;;;;;14.30;9.60;;;;;;;9.80;100.00;97964.22;102222;1273;97810;-78
2024/02/11 13:35:18;;;;;;;14.60;9.90;;;;;;;9.85;100.00;97966.10;102081;1270;138460;-79
2024/02/11 13:38:22;;;;;;;18.10;11.10;;;;;;;9.89;100.00;97963.41;102184;1269;108224;-77